PWSweather.com
Personal Weather Stations
Station Observations
KWAVA98665
Vancouver, WA 98665

Vancouver, WA 98665

Lat: 45.6827589, Lon: -122.63116100000002

Elevation: 262

Station Type: Davis VP2

http://www.bobsvp2wd.net

High Low Average
Temperature 55.9°F13.3°F 31.9°F-0.1°F 42.4°F5.8°F
Dew Point 37.1°F2.8°F 28.5°F-1.9°F 33.3°F0.7°F
Winds 2.3 mph -3.7 mph - Calm Calm 0.2 mph 0.3 mph
Wind Gusts 3.5 mph5.6 mph -- 0.4 mph0.6 mph
Humidity 91% 49% 72%
Pressure 30.18 in1022.00 in 30.11 in1019.60 in -
Precipitation 0.00 in0.00 in - -
Hour Temp Dew Point Humidity Winds Wind Gusts Pressure Precip Precip Rate Daily Precip Total
12:00 AM 39.5°F4.2°C 30.8°F-0.7°C 71% Calm Calm -- 30.16 in1021.3 mb - 0.00 in0.0 mm 0.00 in0.0 mm
12:15 AM 39.4°F4.1°C 30.8°F-0.7°C 71% Calm Calm -- 30.16 in1021.3 mb - 0.00 in0.0 mm 0.00 in0.0 mm
12:30 AM 39.0°F3.9°C 30.4°F-0.9°C 71% Calm Calm -- 30.16 in1021.3 mb - 0.00 in0.0 mm 0.00 in0.0 mm
12:45 AM 38.9°F3.8°C 30.3°F-0.9°C 71% Calm Calm -- 30.16 in1021.3 mb - 0.00 in0.0 mm 0.00 in0.0 mm
01:00 AM 39.1°F3.9°C 30.5°F-0.8°C 71% Calm Calm -- 30.16 in1021.3 mb - 0.00 in0.0 mm 0.00 in0.0 mm
01:15 AM 39.5°F4.2°C 30.2°F-1.0°C 69% Calm Calm -- 30.16 in1021.3 mb - 0.00 in0.0 mm 0.00 in0.0 mm
01:30 AM 39.0°F3.9°C 30.1°F-1.1°C 70% Calm Calm -- 30.16 in1021.3 mb - 0.00 in0.0 mm 0.00 in0.0 mm
01:45 AM 39.4°F4.1°C 30.1°F-1.1°C 69% Calm Calm -- 30.16 in1021.3 mb - 0.00 in0.0 mm 0.00 in0.0 mm
02:00 AM 39.3°F4.1°C 30.0°F-1.1°C 69% 1.2 mph SE1.9 kmh SE 2.3 mph3.7 kmh 30.16 in1021.3 mb - 0.00 in0.0 mm 0.00 in0.0 mm
02:15 AM 39.7°F4.3°C 30.0°F-1.1°C 68% Calm Calm -- 30.16 in1021.3 mb - 0.00 in0.0 mm 0.00 in0.0 mm
02:30 AM 38.7°F3.7°C 29.8°F-1.2°C 70% Calm Calm -- 30.16 in1021.3 mb - 0.00 in0.0 mm 0.00 in0.0 mm
02:45 AM 37.5°F3.1°C 30.0°F-1.1°C 74% Calm Calm -- 30.15 in1021.0 mb - 0.00 in0.0 mm 0.00 in0.0 mm
03:00 AM 37.1°F2.8°C 29.9°F-1.2°C 75% Calm Calm -- 30.15 in1021.0 mb - 0.00 in0.0 mm 0.00 in0.0 mm
03:15 AM 36.7°F2.6°C 29.8°F-1.2°C 76% Calm Calm -- 30.15 in1021.0 mb - 0.00 in0.0 mm 0.00 in0.0 mm
03:30 AM 36.9°F2.7°C 30.0°F-1.1°C 76% Calm Calm -- 30.15 in1021.0 mb - 0.00 in0.0 mm 0.00 in0.0 mm
03:45 AM 36.9°F2.7°C 30.0°F-1.1°C 76% Calm Calm -- 30.15 in1021.0 mb - 0.00 in0.0 mm 0.00 in0.0 mm
04:00 AM 36.8°F2.7°C 30.3°F-0.9°C 77% Calm Calm -- 30.15 in1021.0 mb - 0.00 in0.0 mm 0.00 in0.0 mm
04:15 AM 36.3°F2.4°C 30.4°F-0.9°C 79% Calm Calm -- 30.15 in1021.0 mb - 0.00 in0.0 mm 0.00 in0.0 mm
04:30 AM 36.0°F2.2°C 30.4°F-0.9°C 80% Calm Calm -- 30.16 in1021.3 mb - 0.00 in0.0 mm 0.00 in0.0 mm
04:45 AM 35.5°F1.9°C 30.5°F-0.8°C 82% Calm Calm -- 30.15 in1021.0 mb - 0.00 in0.0 mm 0.00 in0.0 mm
05:00 AM 35.5°F1.9°C 31.1°F-0.5°C 84% Calm Calm -- 30.15 in1021.0 mb - 0.00 in0.0 mm 0.00 in0.0 mm
05:15 AM 35.2°F1.8°C 30.9°F-0.6°C 84% Calm Calm -- 30.15 in1021.0 mb - 0.00 in0.0 mm 0.00 in0.0 mm
05:30 AM 34.6°F1.4°C 30.2°F-1.0°C 84% Calm Calm -- 30.15 in1021.0 mb - 0.00 in0.0 mm 0.00 in0.0 mm
05:45 AM 33.6°F0.9°C 29.6°F-1.3°C 85% Calm Calm -- 30.15 in1021.0 mb - 0.00 in0.0 mm 0.00 in0.0 mm
06:00 AM 32.5°F0.3°C 28.5°F-1.9°C 85% Calm Calm -- 30.15 in1021.0 mb - 0.00 in0.0 mm 0.00 in0.0 mm
06:15 AM 31.9°F-0.1°C 28.5°F-1.9°C 87% Calm Calm -- 30.15 in1021.0 mb - 0.00 in0.0 mm 0.00 in0.0 mm
06:30 AM 31.9°F-0.1°C 29.1°F-1.6°C 89% Calm Calm -- 30.14 in1020.7 mb - 0.00 in0.0 mm 0.00 in0.0 mm
06:45 AM 32.1°F0.1°C 29.5°F-1.4°C 90% Calm Calm -- 30.14 in1020.7 mb - 0.00 in0.0 mm 0.00 in0.0 mm
07:00 AM 32.4°F0.2°C 29.8°F-1.2°C 90% Calm Calm -- 30.14 in1020.7 mb - 0.00 in0.0 mm 0.00 in0.0 mm
07:15 AM 32.2°F0.1°C 29.9°F-1.2°C 91% Calm Calm -- 30.15 in1021.0 mb - 0.00 in0.0 mm 0.00 in0.0 mm
07:30 AM 32.0°F0.0°C 29.7°F-1.3°C 91% Calm Calm -- 30.16 in1021.3 mb - 0.00 in0.0 mm 0.00 in0.0 mm
07:45 AM 32.2°F0.1°C 29.8°F-1.2°C 91% Calm Calm -- 30.16 in1021.3 mb - 0.00 in0.0 mm 0.00 in0.0 mm
08:00 AM 33.1°F0.6°C 30.2°F-1.0°C 89% Calm Calm -- 30.16 in1021.3 mb - 0.00 in0.0 mm 0.00 in0.0 mm
08:15 AM 34.4°F1.3°C 31.2°F-0.4°C 88% Calm Calm -- 30.16 in1021.3 mb - 0.00 in0.0 mm 0.00 in0.0 mm
08:30 AM 35.7°F2.1°C 32.5°F0.3°C 88% Calm Calm -- 30.17 in1021.7 mb - 0.00 in0.0 mm 0.00 in0.0 mm
08:45 AM 38.2°F3.4°C 33.8°F1.0°C 84% Calm Calm -- 30.17 in1021.7 mb - 0.00 in0.0 mm 0.00 in0.0 mm
09:00 AM 41.0°F5.0°C 35.3°F1.8°C 80% Calm Calm -- 30.17 in1021.7 mb - 0.00 in0.0 mm 0.00 in0.0 mm
09:15 AM 41.3°F5.2°C 35.3°F1.8°C 79% Calm Calm -- 30.17 in1021.7 mb - 0.00 in0.0 mm 0.00 in0.0 mm
09:30 AM 42.5°F5.8°C 35.1°F1.7°C 75% Calm Calm -- 30.18 in1022.0 mb - 0.00 in0.0 mm 0.00 in0.0 mm
09:45 AM 43.7°F6.5°C 36.6°F2.6°C 76% Calm Calm -- 30.18 in1022.0 mb - 0.00 in0.0 mm 0.00 in0.0 mm
10:00 AM 44.1°F6.7°C 35.6°F2.0°C 72% Calm Calm 1.2 mph1.9 kmh 30.18 in1022.0 mb - 0.00 in0.0 mm 0.00 in0.0 mm
10:15 AM 44.8°F7.1°C 34.9°F1.6°C 68% 1.2 mph WSW1.9 kmh WSW 2.3 mph3.7 kmh 30.18 in1022.0 mb - 0.00 in0.0 mm 0.00 in0.0 mm
10:30 AM 45.9°F7.7°C 35.5°F1.9°C 67% Calm Calm -- 30.18 in1022.0 mb - 0.00 in0.0 mm 0.00 in0.0 mm
10:45 AM 47.3°F8.5°C 35.3°F1.8°C 63% Calm Calm 1.2 mph1.9 kmh 30.17 in1021.7 mb - 0.00 in0.0 mm 0.00 in0.0 mm
11:00 AM 48.4°F9.1°C 35.1°F1.7°C 60% 1.2 mph SW1.9 kmh SW 3.5 mph5.6 kmh 30.17 in1021.7 mb - 0.00 in0.0 mm 0.00 in0.0 mm
11:15 AM 48.8°F9.3°C 34.7°F1.5°C 58% Calm Calm 1.2 mph1.9 kmh 30.16 in1021.3 mb - 0.00 in0.0 mm 0.00 in0.0 mm
11:30 AM 49.7°F9.8°C 35.1°F1.7°C 57% 1.2 mph WNW1.9 kmh WNW 1.2 mph1.9 kmh 30.16 in1021.3 mb - 0.00 in0.0 mm 0.00 in0.0 mm
11:45 AM 50.4°F10.2°C 34.8°F1.6°C 55% 1.2 mph WSW1.9 kmh WSW 1.2 mph1.9 kmh 30.16 in1021.3 mb - 0.00 in0.0 mm 0.00 in0.0 mm
12:00 PM 51.1°F10.6°C 35.0°F1.7°C 54% 2.3 mph SW3.7 kmh SW 3.5 mph5.6 kmh 30.15 in1021.0 mb - 0.00 in0.0 mm 0.00 in0.0 mm
12:15 PM 51.7°F10.9°C 35.1°F1.7°C 53% Calm Calm -- 30.14 in1020.7 mb - 0.00 in0.0 mm 0.00 in0.0 mm
12:30 PM 53.0°F11.7°C 35.8°F2.1°C 52% Calm Calm -- 30.14 in1020.7 mb - 0.00 in0.0 mm 0.00 in0.0 mm
12:45 PM 53.3°F11.8°C 35.6°F2.0°C 51% 1.2 mph SW1.9 kmh SW 3.5 mph5.6 kmh 30.14 in1020.7 mb - 0.00 in0.0 mm 0.00 in0.0 mm
01:00 PM 53.6°F12.0°C 35.9°F2.2°C 51% Calm Calm 1.2 mph1.9 kmh 30.13 in1020.3 mb - 0.00 in0.0 mm 0.00 in0.0 mm
01:15 PM 54.2°F12.3°C 36.5°F2.5°C 51% 1.2 mph SSW1.9 kmh SSW 2.3 mph3.7 kmh 30.13 in1020.3 mb - 0.00 in0.0 mm 0.00 in0.0 mm
01:30 PM 54.3°F12.4°C 36.0°F2.2°C 50% 1.2 mph WSW1.9 kmh WSW 2.3 mph3.7 kmh 30.13 in1020.3 mb - 0.00 in0.0 mm 0.00 in0.0 mm
01:45 PM 55.1°F12.8°C 36.3°F2.4°C 49% 1.2 mph SSW1.9 kmh SSW -- 30.12 in1020.0 mb - 0.00 in0.0 mm 0.00 in0.0 mm
02:00 PM 55.4°F13.0°C 36.5°F2.5°C 49% 2.3 mph WSW3.7 kmh WSW 3.5 mph5.6 kmh 30.12 in1020.0 mb - 0.00 in0.0 mm 0.00 in0.0 mm
02:15 PM 55.3°F12.9°C 36.5°F2.5°C 49% Calm Calm -- 30.12 in1020.0 mb - 0.00 in0.0 mm 0.00 in0.0 mm
02:30 PM 55.9°F13.3°C 37.0°F2.8°C 49% Calm Calm -- 30.12 in1020.0 mb - 0.00 in0.0 mm 0.00 in0.0 mm
02:45 PM 55.8°F13.2°C 36.9°F2.7°C 49% 2.3 mph SW3.7 kmh SW 2.3 mph3.7 kmh 30.12 in1020.0 mb - 0.00 in0.0 mm 0.00 in0.0 mm
03:00 PM 55.5°F13.1°C 36.6°F2.6°C 49% Calm Calm 2.3 mph3.7 kmh 30.11 in1019.6 mb - 0.00 in0.0 mm 0.00 in0.0 mm
03:15 PM 55.5°F13.1°C 37.1°F2.8°C 50% Calm Calm -- 30.11 in1019.6 mb - 0.00 in0.0 mm 0.00 in0.0 mm
03:30 PM 55.1°F12.8°C 36.8°F2.7°C 50% Calm Calm -- 30.11 in1019.6 mb - 0.00 in0.0 mm 0.00 in0.0 mm
03:45 PM 54.9°F12.7°C 37.1°F2.8°C 51% Calm Calm -- 30.11 in1019.6 mb - 0.00 in0.0 mm 0.00 in0.0 mm
04:00 PM 54.3°F12.4°C 37.0°F2.8°C 52% 1.2 mph SW1.9 kmh SW 1.2 mph1.9 kmh 30.11 in1019.6 mb - 0.00 in0.0 mm 0.00 in0.0 mm
04:15 PM 53.2°F11.8°C 37.0°F2.8°C 54% Calm Calm -- 30.11 in1019.6 mb - 0.00 in0.0 mm 0.00 in0.0 mm
04:30 PM 52.1°F11.2°C 36.9°F2.7°C 56% Calm Calm -- 30.11 in1019.6 mb - 0.00 in0.0 mm 0.00 in0.0 mm
04:45 PM 50.8°F10.4°C 37.0°F2.8°C 59% Calm Calm -- 30.11 in1019.6 mb - 0.00 in0.0 mm 0.00 in0.0 mm
05:00 PM 49.3°F9.6°C 36.5°F2.5°C 61% Calm Calm -- 30.11 in1019.6 mb - 0.00 in0.0 mm 0.00 in0.0 mm
05:15 PM 48.0°F8.9°C 36.0°F2.2°C 63% Calm Calm -- 30.11 in1019.6 mb - 0.00 in0.0 mm 0.00 in0.0 mm
05:30 PM 47.1°F8.4°C 35.9°F2.2°C 65% Calm Calm -- 30.11 in1019.6 mb - 0.00 in0.0 mm 0.00 in0.0 mm
05:45 PM 46.3°F7.9°C 35.9°F2.2°C 67% Calm Calm -- 30.11 in1019.6 mb - 0.00 in0.0 mm 0.00 in0.0 mm
06:00 PM 45.8°F7.7°C 35.8°F2.1°C 68% Calm Calm -- 30.11 in1019.6 mb - 0.00 in0.0 mm 0.00 in0.0 mm
06:15 PM 44.9°F7.2°C 35.3°F1.8°C 69% Calm Calm -- 30.11 in1019.6 mb - 0.00 in0.0 mm 0.00 in0.0 mm
06:30 PM 43.9°F6.6°C 35.5°F1.9°C 72% Calm Calm -- 30.11 in1019.6 mb - 0.00 in0.0 mm 0.00 in0.0 mm
06:45 PM 43.1°F6.2°C 35.0°F1.7°C 73% Calm Calm -- 30.11 in1019.6 mb - 0.00 in0.0 mm 0.00 in0.0 mm
07:00 PM 42.3°F5.7°C 35.3°F1.8°C 76% Calm Calm -- 30.11 in1019.6 mb - 0.00 in0.0 mm 0.00 in0.0 mm
07:15 PM 41.5°F5.3°C 35.1°F1.7°C 78% Calm Calm -- 30.11 in1019.6 mb - 0.00 in0.0 mm 0.00 in0.0 mm
07:30 PM 41.6°F5.3°C 35.2°F1.8°C 78% Calm Calm -- 30.12 in1020.0 mb - 0.00 in0.0 mm 0.00 in0.0 mm
07:45 PM 41.0°F5.0°C 34.7°F1.5°C 78% Calm Calm -- 30.12 in1020.0 mb - 0.00 in0.0 mm 0.00 in0.0 mm
08:00 PM 40.2°F4.6°C 34.5°F1.4°C 80% Calm Calm -- 30.12 in1020.0 mb - 0.00 in0.0 mm 0.00 in0.0 mm
08:15 PM 40.1°F4.5°C 34.4°F1.3°C 80% Calm Calm -- 30.12 in1020.0 mb - 0.00 in0.0 mm 0.00 in0.0 mm
08:30 PM 39.8°F4.3°C 34.1°F1.2°C 80% Calm Calm -- 30.12 in1020.0 mb - 0.00 in0.0 mm 0.00 in0.0 mm
08:45 PM 40.0°F4.4°C 34.3°F1.3°C 80% Calm Calm -- 30.12 in1020.0 mb - 0.00 in0.0 mm 0.00 in0.0 mm
09:00 PM 39.8°F4.3°C 34.1°F1.2°C 80% Calm Calm -- 30.12 in1020.0 mb - 0.00 in0.0 mm 0.00 in0.0 mm
09:15 PM 39.4°F4.1°C 33.7°F0.9°C 80% Calm Calm -- 30.12 in1020.0 mb - 0.00 in0.0 mm 0.00 in0.0 mm
09:30 PM 38.9°F3.8°C 33.9°F1.1°C 82% Calm Calm -- 30.12 in1020.0 mb - 0.00 in0.0 mm 0.00 in0.0 mm
09:45 PM 38.9°F3.8°C 34.2°F1.2°C 83% Calm Calm -- 30.13 in1020.3 mb - 0.00 in0.0 mm 0.00 in0.0 mm
10:00 PM 38.3°F3.5°C 33.5°F0.8°C 83% Calm Calm -- 30.13 in1020.3 mb - 0.00 in0.0 mm 0.00 in0.0 mm
10:15 PM 37.5°F3.1°C 33.1°F0.6°C 84% Calm Calm -- 30.13 in1020.3 mb - 0.00 in0.0 mm 0.00 in0.0 mm
10:30 PM 37.0°F2.8°C 32.9°F0.5°C 85% Calm Calm -- 30.13 in1020.3 mb - 0.00 in0.0 mm 0.00 in0.0 mm
10:45 PM 36.9°F2.7°C 33.1°F0.6°C 86% Calm Calm -- 30.13 in1020.3 mb - 0.00 in0.0 mm 0.00 in0.0 mm
11:00 PM 36.5°F2.5°C 32.4°F0.2°C 85% Calm Calm -- 30.14 in1020.7 mb - 0.00 in0.0 mm 0.00 in0.0 mm
11:15 PM 36.2°F2.3°C 32.4°F0.2°C 86% Calm Calm -- 30.14 in1020.7 mb - 0.00 in0.0 mm 0.00 in0.0 mm
11:30 PM 35.7°F2.1°C 31.9°F-0.1°C 86% Calm Calm -- 30.14 in1020.7 mb - 0.00 in0.0 mm 0.00 in0.0 mm
11:45 PM 35.1°F1.7°C 31.9°F-0.1°C 88% Calm Calm -- 30.14 in1020.7 mb - 0.00 in0.0 mm 0.00 in0.0 mm